createdAt,value
2023-04-16T00:00:03.883Z,101546.78
2023-04-16T00:02:38.728Z,101544.94
2023-04-16T00:05:06.955Z,101544.84
2023-04-16T00:07:34.538Z,101537.50
2023-04-16T00:10:02.259Z,101542.81
2023-04-16T00:12:31.249Z,101549.34
2023-04-16T00:14:58.827Z,101552.41
2023-04-16T00:17:26.659Z,101545.84
2023-04-16T00:19:54.221Z,101552.53
2023-04-16T00:22:21.742Z,101551.53
2023-04-16T00:24:49.299Z,101550.97
2023-04-16T00:27:16.879Z,101549.50
2023-04-16T00:29:45.794Z,101539.13
2023-04-16T00:32:13.330Z,101541.00
2023-04-16T00:34:40.861Z,101544.94
2023-04-16T00:37:08.386Z,101549.75
2023-04-16T00:39:36.095Z,101540.44
2023-04-16T00:42:03.653Z,101543.91
2023-04-16T00:44:31.166Z,101546.88
2023-04-16T00:47:00.452Z,101540.09
2023-04-16T00:49:28.426Z,101542.25
2023-04-16T00:51:57.775Z,101541.06
2023-04-16T00:54:26.565Z,101551.59
2023-04-16T00:56:54.328Z,101541.75
2023-04-16T00:59:22.764Z,101543.75
2023-04-16T01:01:50.437Z,101544.59
2023-04-16T01:04:19.500Z,101542.72
2023-04-16T01:06:47.133Z,101545.06
2023-04-16T01:09:15.237Z,101549.22
2023-04-16T01:11:42.808Z,101544.56
2023-04-16T01:14:10.351Z,101553.69
2023-04-16T01:16:38.876Z,101550.00
2023-04-16T01:19:07.777Z,101555.69
2023-04-16T01:21:36.882Z,101553.84
2023-04-16T01:24:05.129Z,101550.53
2023-04-16T01:26:34.094Z,101558.34
2023-04-16T01:29:01.659Z,101560.38
2023-04-16T01:31:29.236Z,101569.31
2023-04-16T01:34:02.387Z,101565.63
2023-04-16T01:36:29.915Z,101568.13
2023-04-16T01:38:59.251Z,101575.28
2023-04-16T01:41:27.675Z,101574.47
2023-04-16T01:43:55.250Z,101586.78
2023-04-16T01:46:29.217Z,101581.25
2023-04-16T01:48:57.400Z,101582.84
2023-04-16T01:51:25.556Z,101585.53
2023-04-16T01:53:53.119Z,101583.06
2023-04-16T01:56:22.032Z,101586.56
2023-04-16T01:58:49.621Z,101583.69
2023-04-16T02:01:19.087Z,101590.22
2023-04-16T02:03:48.246Z,101588.75
2023-04-16T02:06:16.474Z,101588.47
2023-04-16T02:08:44.105Z,101593.25
2023-04-16T02:11:11.682Z,101595.53
2023-04-16T02:13:41.124Z,101594.06
2023-04-16T02:16:09.030Z,101596.38
2023-04-16T02:18:56.924Z,101595.06
2023-04-16T02:21:25.851Z,101595.72
2023-04-16T02:23:53.538Z,101590.38
2023-04-16T02:26:29.059Z,101595.81
2023-04-16T02:29:01.674Z,101598.50
2023-04-16T02:31:37.161Z,101598.13
2023-04-16T02:34:06.091Z,101604.94
2023-04-16T02:36:33.731Z,101602.19
2023-04-16T02:39:01.426Z,101601.63
2023-04-16T02:41:29.112Z,101602.47
2023-04-16T02:43:57.066Z,101604.09
2023-04-16T02:46:26.141Z,101600.81
2023-04-16T02:48:53.891Z,101601.56
2023-04-16T02:51:21.382Z,101605.78
2023-04-16T02:53:48.926Z,101604.59
2023-04-16T02:56:16.462Z,101605.41
2023-04-16T02:58:43.973Z,101605.41
2023-04-16T03:01:11.560Z,101607.25
2023-04-16T03:03:40.906Z,101609.28
2023-04-16T03:06:08.435Z,101613.06
2023-04-16T03:08:35.956Z,101610.50
2023-04-16T03:11:03.586Z,101604.41
2023-04-16T03:13:31.125Z,101616.28
2023-04-16T03:15:58.650Z,101619.59
2023-04-16T03:18:26.261Z,101605.63
2023-04-16T03:20:55.283Z,101610.94
2023-04-16T03:23:22.834Z,101609.75
2023-04-16T03:25:51.190Z,101620.06
2023-04-16T03:28:19.430Z,101613.69
2023-04-16T03:30:51.712Z,101616.56
2023-04-16T03:33:19.680Z,101611.38
2023-04-16T03:35:47.393Z,101620.06
2023-04-16T03:38:16.741Z,101617.56
2023-04-16T03:40:44.344Z,101617.75
2023-04-16T03:43:11.900Z,101620.41
2023-04-16T03:45:45.085Z,101622.88
2023-04-16T03:48:13.564Z,101619.34
2023-04-16T03:50:41.258Z,101625.41
2023-04-16T03:53:10.311Z,101621.06
2023-04-16T03:55:40.207Z,101615.09
2023-04-16T03:58:09.250Z,101615.91
2023-04-16T04:00:36.809Z,101616.31
2023-04-16T04:03:11.336Z,101620.63
2023-04-16T04:05:40.961Z,101624.69
2023-04-16T04:08:10.748Z,101617.69
2023-04-16T04:10:39.958Z,101621.69
2023-04-16T04:13:08.646Z,101618.03
2023-04-16T04:15:38.205Z,101620.41
2023-04-16T04:18:06.145Z,101623.72
2023-04-16T04:20:33.713Z,101624.38
2023-04-16T04:23:02.521Z,101631.09
2023-04-16T04:25:31.003Z,101631.44
2023-04-16T04:28:00.760Z,101637.25
2023-04-16T04:30:29.737Z,101642.75
2023-04-16T04:32:57.393Z,101641.75
2023-04-16T04:35:25.051Z,101643.34
2023-04-16T04:37:53.514Z,101640.69
2023-04-16T04:40:21.852Z,101639.84
2023-04-16T04:42:49.421Z,101642.66
2023-04-16T04:45:18.486Z,101645.19
2023-04-16T04:47:46.190Z,101635.78
2023-04-16T04:50:13.858Z,101643.97
2023-04-16T04:52:42.029Z,101641.25
2023-04-16T04:55:09.945Z,101648.59
2023-04-16T04:57:37.538Z,101649.59
2023-04-16T05:00:07.078Z,101662.09
2023-04-16T05:02:44.276Z,101659.28
2023-04-16T05:05:12.066Z,101657.59
2023-04-16T05:07:39.584Z,101656.41
2023-04-16T05:10:08.609Z,101660.28
2023-04-16T05:12:36.285Z,101659.28
2023-04-16T05:15:04.024Z,101665.44
2023-04-16T05:17:31.639Z,101661.84
2023-04-16T05:20:01.246Z,101663.69
2023-04-16T05:22:28.765Z,101669.69
2023-04-16T05:24:56.352Z,101669.50
2023-04-16T05:27:24.055Z,101670.53
2023-04-16T05:29:51.605Z,101672.53
2023-04-16T05:32:19.230Z,101679.88
2023-04-16T05:34:46.772Z,101680.19
2023-04-16T05:37:15.724Z,101691.69
2023-04-16T05:39:43.262Z,101701.34
2023-04-16T05:42:10.830Z,101697.22
2023-04-16T05:44:38.447Z,101696.91
2023-04-16T05:47:07.217Z,101703.53
2023-04-16T05:49:34.755Z,101702.16
2023-04-16T05:52:02.413Z,101708.09
2023-04-16T05:54:31.273Z,101711.75
2023-04-16T05:56:58.852Z,101703.09
2023-04-16T05:59:26.540Z,101711.03
2023-04-16T06:01:54.276Z,101704.22
2023-04-16T06:04:21.885Z,101709.75
2023-04-16T06:06:49.595Z,101714.25
2023-04-16T06:09:18.152Z,101715.38
2023-04-16T06:11:47.107Z,101711.34
2023-04-16T06:14:14.869Z,101711.00
2023-04-16T06:16:42.390Z,101721.94
2023-04-16T06:19:10.181Z,101712.94
2023-04-16T06:21:38.700Z,101721.22
2023-04-16T06:24:06.990Z,101711.09
2023-04-16T06:26:34.551Z,101718.47
2023-04-16T06:29:03.409Z,101715.44
2023-04-16T06:31:31.191Z,101725.84
2023-04-16T06:33:58.862Z,101719.41
2023-04-16T06:36:27.481Z,101727.94
2023-04-16T06:38:55.033Z,101721.78
2023-04-16T06:41:25.440Z,101728.78
2023-04-16T06:43:53.232Z,101733.47
2023-04-16T06:46:22.193Z,101740.94
2023-04-16T06:48:49.948Z,101745.19
2023-04-16T06:51:17.545Z,101742.72
2023-04-16T06:53:45.162Z,101748.31
2023-04-16T06:56:12.728Z,101747.75
2023-04-16T06:58:40.403Z,101749.06
2023-04-16T07:01:08.109Z,101752.72
2023-04-16T07:03:37.310Z,101751.19
2023-04-16T07:06:05.013Z,101751.28
2023-04-16T07:08:32.604Z,101755.03
2023-04-16T07:11:00.281Z,101760.69
2023-04-16T07:13:27.987Z,101756.34
2023-04-16T07:15:55.541Z,101758.94
2023-04-16T07:18:24.244Z,101755.72
2023-04-16T07:20:53.165Z,101759.41
2023-04-16T07:23:20.775Z,101766.50
2023-04-16T07:25:48.307Z,101759.50
2023-04-16T07:28:17.496Z,101757.56
2023-04-16T07:30:45.167Z,101761.91
2023-04-16T07:33:12.813Z,101762.91
2023-04-16T07:35:40.405Z,101772.97
2023-04-16T07:38:09.273Z,101764.47
2023-04-16T07:40:37.625Z,101761.81
2023-04-16T07:43:05.173Z,101767.31
2023-04-16T07:45:32.698Z,101769.09
2023-04-16T07:48:00.437Z,101766.13
2023-04-16T07:50:28.071Z,101781.44
2023-04-16T07:52:55.596Z,101780.78
2023-04-16T07:55:24.842Z,101784.13
2023-04-16T07:57:52.454Z,101774.72
2023-04-16T08:00:20.105Z,101781.16
2023-04-16T08:02:47.931Z,101782.00
2023-04-16T08:05:15.652Z,101785.13
2023-04-16T08:07:43.385Z,101784.94
2023-04-16T08:10:11.195Z,101791.78
2023-04-16T08:12:40.704Z,101784.84
2023-04-16T08:15:09.287Z,101795.97
2023-04-16T08:17:37.609Z,101799.41
2023-04-16T08:20:06.362Z,101794.06
2023-04-16T08:22:34.344Z,101796.38
2023-04-16T08:25:01.886Z,101794.97
2023-04-16T08:27:29.450Z,101804.84
2023-04-16T08:29:58.304Z,101808.81
2023-04-16T08:32:27.086Z,101810.47
2023-04-16T08:34:54.616Z,101821.19
2023-04-16T08:37:22.206Z,101821.44
2023-04-16T08:39:49.726Z,101823.75
2023-04-16T08:42:24.789Z,101818.19
2023-04-16T08:44:58.250Z,101823.53
2023-04-16T08:47:32.062Z,101834.06
2023-04-16T08:50:00.192Z,101831.28
2023-04-16T08:52:31.681Z,101825.56
2023-04-16T08:55:06.252Z,101823.81
2023-04-16T08:57:41.427Z,101831.97
2023-04-16T09:00:10.096Z,101826.59
2023-04-16T09:02:39.386Z,101826.47
2023-04-16T09:05:08.840Z,101822.03
2023-04-16T09:07:37.489Z,101828.78
2023-04-16T09:10:08.040Z,101831.53
2023-04-16T09:12:36.654Z,101829.78
2023-04-16T09:15:06.055Z,101833.16
2023-04-16T09:17:35.209Z,101829.13
2023-04-16T09:20:05.758Z,101832.50
2023-04-16T09:22:33.300Z,101842.66
2023-04-16T09:25:00.952Z,101841.66
2023-04-16T09:27:29.181Z,101848.91
2023-04-16T09:29:56.701Z,101842.78
2023-04-16T09:32:27.147Z,101848.06
2023-04-16T09:34:57.182Z,101854.44
2023-04-16T09:37:26.543Z,101861.22
2023-04-16T09:39:56.329Z,101857.63
2023-04-16T09:42:27.049Z,101859.09
2023-04-16T09:44:56.277Z,101863.50
2023-04-16T09:47:27.174Z,101866.72
2023-04-16T09:49:59.903Z,101868.94
2023-04-16T09:52:28.779Z,101873.03
2023-04-16T09:54:56.304Z,101877.16
2023-04-16T09:57:24.841Z,101882.31
2023-04-16T09:59:54.628Z,101873.44
2023-04-16T10:02:23.597Z,101880.34
2023-04-16T10:04:52.523Z,101879.69
2023-04-16T10:07:20.535Z,101885.63
2023-04-16T10:09:50.551Z,101882.34
2023-04-16T10:12:18.112Z,101886.69
2023-04-16T10:14:46.905Z,101886.19
2023-04-16T10:17:17.511Z,101888.53
2023-04-16T10:19:46.450Z,101897.22
2023-04-16T10:22:15.283Z,101894.97
2023-04-16T10:24:44.125Z,101892.81
2023-04-16T10:27:13.335Z,101893.44
2023-04-16T10:29:41.615Z,101892.00
2023-04-16T10:32:09.426Z,101899.03
2023-04-16T10:34:37.237Z,101901.50
2023-04-16T10:37:05.054Z,101904.84
2023-04-16T10:39:37.275Z,101904.47
2023-04-16T10:42:09.225Z,101904.66
2023-04-16T10:44:38.281Z,101912.94
2023-04-16T10:47:12.479Z,101914.22
2023-04-16T10:49:40.302Z,101912.00
2023-04-16T10:52:13.118Z,101916.28
2023-04-16T10:54:41.409Z,101910.25
2023-04-16T10:57:12.113Z,101906.00
2023-04-16T10:59:44.020Z,101918.19
2023-04-16T11:02:14.967Z,101914.22
2023-04-16T11:04:44.362Z,101917.88
2023-04-16T11:07:20.398Z,101920.16
2023-04-16T11:09:54.123Z,101924.41
2023-04-16T11:12:23.967Z,101924.63
2023-04-16T11:14:54.077Z,101922.94
2023-04-16T11:17:22.169Z,101924.72
2023-04-16T11:19:49.781Z,101918.03
2023-04-16T11:22:18.573Z,101918.66
2023-04-16T11:24:48.305Z,101926.16
2023-04-16T11:27:16.512Z,101920.59
2023-04-16T11:29:46.334Z,101931.97
2023-04-16T11:32:23.011Z,101927.78
2023-04-16T11:34:51.027Z,101927.38
2023-04-16T11:37:21.686Z,101929.56
2023-04-16T11:39:53.400Z,101935.41
2023-04-16T11:42:22.775Z,101934.47
2023-04-16T11:44:55.240Z,101933.00
2023-04-16T11:47:25.599Z,101936.50
2023-04-16T11:49:53.436Z,101934.75
2023-04-16T11:52:30.856Z,101939.94
2023-04-16T11:54:59.306Z,101939.34
2023-04-16T11:57:27.866Z,101944.81
2023-04-16T12:00:02.185Z,101945.81
2023-04-16T12:02:42.664Z,101947.31
2023-04-16T12:05:30.120Z,101947.84
2023-04-16T12:07:58.307Z,101947.47
2023-04-16T12:10:26.969Z,101954.13
2023-04-16T12:12:54.993Z,101949.28
2023-04-16T12:15:22.557Z,101941.34
2023-04-16T12:17:54.390Z,101943.34
2023-04-16T12:20:22.032Z,101949.66
2023-04-16T12:22:50.609Z,101947.44
2023-04-16T12:25:19.166Z,101949.34
2023-04-16T12:27:50.734Z,101953.97
2023-04-16T12:30:22.923Z,101950.66
2023-04-16T12:32:55.127Z,101958.03
2023-04-16T12:35:31.465Z,101956.00
2023-04-16T12:37:59.111Z,101955.69
2023-04-16T12:40:27.403Z,101953.97
2023-04-16T12:42:54.989Z,101953.13
2023-04-16T12:45:23.128Z,101956.63
2023-04-16T12:47:52.090Z,101950.25
2023-04-16T12:50:19.693Z,101950.66
2023-04-16T12:52:47.226Z,101952.66
2023-04-16T12:55:15.332Z,101954.72
2023-04-16T12:57:42.914Z,101953.59
2023-04-16T13:00:14.667Z,101943.47
2023-04-16T13:02:42.360Z,101951.41
2023-04-16T13:05:11.406Z,101946.06
2023-04-16T13:07:38.970Z,101942.34
2023-04-16T13:10:07.344Z,101949.44
2023-04-16T13:12:34.901Z,101949.91
2023-04-16T13:15:02.483Z,101950.94
2023-04-16T13:17:29.993Z,101951.56
2023-04-16T13:19:57.561Z,101951.44
2023-04-16T13:22:26.455Z,101960.72
2023-04-16T13:24:54.054Z,101955.03
2023-04-16T13:27:21.565Z,101953.25
2023-04-16T13:29:49.179Z,101962.88
2023-04-16T13:32:17.297Z,101962.00
2023-04-16T13:34:45.014Z,101962.00
2023-04-16T13:37:12.501Z,101960.31
2023-04-16T13:39:41.427Z,101968.56
2023-04-16T13:42:08.922Z,101970.03
2023-04-16T13:44:36.486Z,101967.56
2023-04-16T13:47:04.164Z,101963.97
2023-04-16T13:49:35.508Z,101963.00
2023-04-16T13:52:03.432Z,101962.38
2023-04-16T13:54:31.100Z,101962.16
2023-04-16T13:57:00.120Z,101959.69
2023-04-16T13:59:27.732Z,101956.00
2023-04-16T14:01:55.390Z,101954.50
2023-04-16T14:04:23.471Z,101958.47
2023-04-16T14:06:51.312Z,101951.16
2023-04-16T14:09:18.910Z,101947.09
2023-04-16T14:11:46.472Z,101945.03
2023-04-16T14:14:15.519Z,101952.69
2023-04-16T14:16:43.130Z,101957.88
2023-04-16T14:19:11.199Z,101953.72
2023-04-16T14:21:38.824Z,101963.19
2023-04-16T14:24:07.155Z,101951.94
2023-04-16T14:26:34.785Z,101958.97
2023-04-16T14:29:02.362Z,101955.69
2023-04-16T14:31:33.482Z,101961.25
2023-04-16T14:34:01.186Z,101960.88
2023-04-16T14:36:28.858Z,101964.19
2023-04-16T14:38:56.469Z,101965.69
2023-04-16T14:41:24.120Z,101964.81
2023-04-16T14:43:51.635Z,101969.41
2023-04-16T14:46:19.233Z,101966.63
2023-04-16T14:48:48.138Z,101960.88
2023-04-16T14:51:15.695Z,101961.44
2023-04-16T14:53:43.269Z,101970.78
2023-04-16T14:56:12.852Z,101975.03
2023-04-16T14:58:42.650Z,101972.59
2023-04-16T15:01:10.378Z,101971.41
2023-04-16T15:03:38.275Z,101975.53
2023-04-16T15:06:08.681Z,101968.84
2023-04-16T15:08:36.476Z,101970.03
2023-04-16T15:11:04.052Z,101975.41
2023-04-16T15:13:33.879Z,101970.72
2023-04-16T15:16:01.749Z,101979.09
2023-04-16T15:18:29.579Z,101979.63
2023-04-16T15:20:57.107Z,101974.28
2023-04-16T15:23:26.506Z,101978.88
2023-04-16T15:25:54.059Z,101980.50
2023-04-16T15:28:21.613Z,101987.16
2023-04-16T15:30:49.167Z,101980.28
2023-04-16T15:33:16.741Z,101995.59
2023-04-16T15:35:44.378Z,101994.19
2023-04-16T15:38:11.882Z,101993.28
2023-04-16T15:40:42.032Z,101992.44
2023-04-16T15:43:09.633Z,101988.06
2023-04-16T15:45:37.432Z,101980.13
2023-04-16T15:48:06.258Z,101989.22
2023-04-16T15:50:34.100Z,101987.41
2023-04-16T15:53:01.738Z,101990.75
2023-04-16T15:55:29.921Z,101991.38
2023-04-16T15:57:58.771Z,101990.94
2023-04-16T16:00:27.441Z,101997.50
2023-04-16T16:02:55.077Z,101991.38
2023-04-16T16:05:22.923Z,101994.81
2023-04-16T16:07:50.569Z,101998.28
2023-04-16T16:10:18.878Z,102002.25
2023-04-16T16:12:46.767Z,102003.00
2023-04-16T16:15:15.761Z,102006.44
2023-04-16T16:17:43.380Z,102008.66
2023-04-16T16:20:12.706Z,102007.53
2023-04-16T16:22:40.560Z,102008.47
2023-04-16T16:25:09.949Z,102006.63
2023-04-16T16:27:37.629Z,102000.44
2023-04-16T16:30:07.215Z,102005.63
2023-04-16T16:32:36.485Z,102003.69
2023-04-16T16:35:04.226Z,102004.53
2023-04-16T16:37:31.771Z,102002.03
2023-04-16T16:39:59.313Z,102006.22
2023-04-16T16:42:27.176Z,101999.94
2023-04-16T16:44:56.677Z,102007.34
2023-04-16T16:47:25.289Z,102012.63
2023-04-16T16:49:54.616Z,102006.03
2023-04-16T16:52:23.798Z,102008.09
2023-04-16T16:54:51.340Z,102008.72
2023-04-16T16:57:20.003Z,102007.06
2023-04-16T16:59:48.365Z,102007.25
2023-04-16T17:02:17.114Z,102013.72
2023-04-16T17:04:44.864Z,102013.66
2023-04-16T17:07:13.851Z,102013.66
2023-04-16T17:09:41.404Z,102014.75
2023-04-16T17:12:09.150Z,102011.97
2023-04-16T17:14:36.736Z,102021.31
2023-04-16T17:17:04.307Z,102023.00
2023-04-16T17:19:31.950Z,102021.31
2023-04-16T17:21:59.451Z,102030.38
2023-04-16T17:24:28.344Z,102034.88
2023-04-16T17:26:55.854Z,102040.16
2023-04-16T17:29:25.976Z,102041.63
2023-04-16T17:31:53.847Z,102039.44
2023-04-16T17:34:21.558Z,102048.19
2023-04-16T17:36:50.428Z,102045.16
2023-04-16T17:39:18.114Z,102047.47
2023-04-16T17:41:47.073Z,102051.25
2023-04-16T17:44:14.786Z,102059.66
2023-04-16T17:46:42.407Z,102065.09
2023-04-16T17:49:10.153Z,102059.53
2023-04-16T17:51:37.710Z,102064.16
2023-04-16T17:54:07.030Z,102063.59
2023-04-16T17:56:34.593Z,102064.50
2023-04-16T17:59:03.508Z,102067.34
2023-04-16T18:01:31.091Z,102068.56
2023-04-16T18:03:58.933Z,102066.81
2023-04-16T18:06:27.563Z,102068.66
2023-04-16T18:08:55.334Z,102069.84
2023-04-16T18:11:22.909Z,102071.88
2023-04-16T18:13:52.684Z,102073.53
2023-04-16T18:16:22.304Z,102078.97
2023-04-16T18:21:17.467Z,102090.38
2023-04-16T18:23:45.037Z,102095.72
2023-04-16T18:26:12.870Z,102099.88
2023-04-16T18:28:40.461Z,102097.75
2023-04-16T18:31:08.107Z,102105.72
2023-04-16T18:36:07.875Z,102110.94
2023-04-16T18:38:36.976Z,102102.00
2023-04-16T18:41:16.827Z,102106.03
2023-04-16T18:43:44.476Z,102105.75
2023-04-16T18:46:11.991Z,102117.84
2023-04-16T18:48:41.449Z,102117.50
2023-04-16T18:51:09.170Z,102121.63
2023-04-16T18:53:36.780Z,102120.00
2023-04-16T18:56:04.412Z,102129.66
2023-04-16T18:58:32.022Z,102127.34
2023-04-16T19:00:59.705Z,102128.38
2023-04-16T19:03:29.541Z,102131.75
2023-04-16T19:05:58.704Z,102132.41
2023-04-16T19:08:26.265Z,102138.75
2023-04-16T19:10:53.834Z,102140.78
2023-04-16T19:13:21.381Z,102134.25
2023-04-16T19:15:48.962Z,102146.97
2023-04-16T19:18:16.548Z,102139.47
2023-04-16T19:20:44.035Z,102145.66
2023-04-16T19:23:13.837Z,102149.53
2023-04-16T19:25:41.412Z,102147.41
2023-04-16T19:28:08.937Z,102149.09
2023-04-16T19:30:36.579Z,102151.13
2023-04-16T19:33:04.177Z,102154.31
2023-04-16T19:35:31.740Z,102154.31
2023-04-16T19:37:59.327Z,102158.34
2023-04-16T19:40:28.207Z,102163.84
2023-04-16T19:42:55.871Z,102165.34
2023-04-16T19:45:25.936Z,102158.69
2023-04-16T19:47:53.614Z,102160.00
2023-04-16T19:50:21.201Z,102166.03
2023-04-16T19:52:48.793Z,102165.69
2023-04-16T19:55:16.478Z,102164.84
2023-04-16T19:57:45.358Z,102168.34
2023-04-16T20:00:13.809Z,102166.03
2023-04-16T20:02:41.493Z,102169.41
2023-04-16T20:05:10.212Z,102166.56
2023-04-16T20:07:37.696Z,102169.59
2023-04-16T20:10:05.828Z,102165.78
2023-04-16T20:12:33.366Z,102169.09
2023-04-16T20:15:02.233Z,102161.13
2023-04-16T20:17:29.789Z,102164.44
2023-04-16T20:20:00.656Z,102166.47
2023-04-16T20:22:28.260Z,102176.19
2023-04-16T20:24:56.314Z,102172.50
2023-04-16T20:27:23.868Z,102170.84
2023-04-16T20:29:51.755Z,102177.84
2023-04-16T20:32:20.608Z,102176.81
2023-04-16T20:34:48.734Z,102175.53
2023-04-16T20:37:16.329Z,102180.53
2023-04-16T20:39:45.058Z,102180.53
2023-04-16T20:42:12.794Z,102178.69
2023-04-16T20:44:41.156Z,102182.84
2023-04-16T20:47:09.218Z,102179.84
2023-04-16T20:49:40.134Z,102185.19
2023-04-16T20:52:07.873Z,102188.19
2023-04-16T20:54:35.574Z,102178.34
2023-04-16T20:57:04.847Z,102176.47
2023-04-16T20:59:32.751Z,102179.50
2023-04-16T21:02:00.491Z,102187.00
2023-04-16T21:04:28.150Z,102191.19
2023-04-16T21:06:57.191Z,102185.69
2023-04-16T21:09:24.712Z,102195.75
2023-04-16T21:11:52.231Z,102181.72
2023-04-16T21:14:19.784Z,102190.75
2023-04-16T21:16:47.295Z,102195.94
2023-04-16T21:19:14.876Z,102197.13
2023-04-16T21:21:42.559Z,102192.63
2023-04-16T21:24:11.571Z,102190.75
2023-04-16T21:26:39.120Z,102189.94
2023-04-16T21:29:06.654Z,102192.41
2023-04-16T21:31:34.231Z,102185.56
2023-04-16T21:34:01.794Z,102189.28
2023-04-16T21:36:31.867Z,102185.59
2023-04-16T21:38:59.440Z,102189.63
2023-04-16T21:41:28.589Z,102186.09
2023-04-16T21:43:56.164Z,102187.44
2023-04-16T21:46:23.763Z,102185.13
2023-04-16T21:48:51.376Z,102189.97
2023-04-16T21:51:19.949Z,102190.94
2023-04-16T21:53:47.448Z,102188.44
2023-04-16T21:56:15.087Z,102189.28
2023-04-16T21:58:43.971Z,102190.31
2023-04-16T22:01:11.576Z,102186.94
2023-04-16T22:03:40.438Z,102186.94
2023-04-16T22:06:08.787Z,102189.97
2023-04-16T22:08:36.369Z,102182.47
2023-04-16T22:11:04.222Z,102188.31
2023-04-16T22:13:32.665Z,102182.16
2023-04-16T22:16:02.272Z,102176.63
2023-04-16T22:18:32.968Z,102182.97
2023-04-16T22:21:01.261Z,102182.31
2023-04-16T22:23:28.848Z,102192.16
2023-04-16T22:25:56.961Z,102184.34
2023-04-16T22:28:24.893Z,102188.84
2023-04-16T22:30:52.422Z,102182.16
2023-04-16T22:33:21.252Z,102189.19
2023-04-16T22:35:48.787Z,102195.16
2023-04-16T22:38:16.387Z,102197.00
2023-04-16T22:40:44.020Z,102194.19
2023-04-16T22:43:11.494Z,102186.50
2023-04-16T22:45:39.049Z,102198.19
2023-04-16T22:48:06.867Z,102200.34
2023-04-16T22:50:35.881Z,102194.34
2023-04-16T22:53:03.420Z,102196.50
2023-04-16T22:55:30.942Z,102199.00
2023-04-16T22:57:58.449Z,102196.31
2023-04-16T23:00:25.973Z,102198.66
2023-04-16T23:02:53.616Z,102192.66
2023-04-16T23:05:21.324Z,102196.31
2023-04-16T23:07:50.142Z,102196.66
2023-04-16T23:10:17.765Z,102195.03
2023-04-16T23:12:45.399Z,102196.19
2023-04-16T23:15:12.906Z,102194.22
2023-04-16T23:17:40.631Z,102187.03
2023-04-16T23:20:09.983Z,102195.19
2023-04-16T23:22:37.490Z,102186.53
2023-04-16T23:25:07.720Z,102189.22
2023-04-16T23:27:35.265Z,102179.19
2023-04-16T23:30:03.149Z,102189.34
2023-04-16T23:32:30.781Z,102184.84
2023-04-16T23:34:58.565Z,102184.03
2023-04-16T23:37:26.121Z,102181.03
2023-04-16T23:39:53.942Z,102181.69
2023-04-16T23:42:22.815Z,102189.34
2023-04-16T23:44:50.348Z,102182.38
2023-04-16T23:47:18.062Z,102184.88
2023-04-16T23:49:45.706Z,102182.03
2023-04-16T23:52:13.284Z,102180.06
2023-04-16T23:54:40.777Z,102190.41
2023-04-16T23:57:08.265Z,102184.91
2023-04-16T23:59:37.141Z,102191.91
